Terminal Aerodrome Forecast
Issued by NWS Sterling, VA

Home | Current Version | Previous Version | Text Only | Print | Product List | Glossary On
Versions: 1 2 3 4 5 6 7 8 9 10 11 12 13
000
FTUS41 KLWX 231729
TAFCHO
TAF
KCHO 231729Z 2318/2418 23010KT P6SM BKN060
     FM240300 21010KT 6SM -SHRA BKN070
     FM240600 21009KT 6SM SHRA OVC050 WS020/21040KT
     FM241100 27008KT P6SM BKN040
     FM241500 28009KT P6SM SCT250=

USA.gov is the U.S. government's official web portal to all federal, state and local government web resources and services.